createdAt,value
2022-12-23T00:00:16.226Z,22.00
2022-12-23T00:02:44.445Z,20.00
2022-12-23T00:05:13.499Z,21.50
2022-12-23T00:07:41.393Z,21.25
2022-12-23T00:10:10.471Z,20.00
2022-12-23T00:12:56.035Z,20.00
2022-12-23T00:15:25.280Z,20.50
2022-12-23T00:17:53.123Z,20.50
2022-12-23T00:20:21.222Z,20.00
2022-12-23T00:23:07.545Z,20.00
2022-12-23T00:25:41.717Z,18.75
2022-12-23T00:28:11.712Z,17.25
2022-12-23T00:30:46.158Z,19.75
2022-12-23T00:33:14.103Z,18.75
2022-12-23T00:35:42.080Z,19.75
2022-12-23T00:38:09.963Z,19.00
2022-12-23T00:40:55.099Z,18.00
2022-12-23T00:43:23.023Z,18.25
2022-12-23T00:45:52.673Z,16.75
2022-12-23T00:48:37.983Z,15.25
2022-12-23T00:51:06.608Z,16.75
2022-12-23T00:53:34.816Z,16.00
2022-12-23T00:56:02.700Z,14.75
2022-12-23T00:58:31.919Z,16.00
2022-12-23T01:01:18.674Z,14.50
2022-12-23T01:04:04.052Z,15.00
2022-12-23T01:06:32.024Z,15.00
2022-12-23T01:08:59.929Z,15.00
2022-12-23T01:11:27.795Z,14.75
2022-12-23T01:13:55.949Z,13.75
2022-12-23T01:16:25.238Z,14.00
2022-12-23T01:18:53.159Z,15.00
2022-12-23T01:21:21.098Z,13.75
2022-12-23T01:23:48.989Z,13.00
2022-12-23T01:26:16.863Z,13.00
2022-12-23T01:28:44.756Z,12.50
2022-12-23T01:31:12.788Z,11.00
2022-12-23T01:33:42.458Z,12.25
2022-12-23T01:36:11.462Z,11.00
2022-12-23T01:38:39.372Z,12.00
2022-12-23T01:41:07.267Z,11.50
2022-12-23T01:43:45.405Z,11.25
2022-12-23T01:46:13.424Z,11.00
2022-12-23T01:48:42.787Z,10.75
2022-12-23T01:51:13.040Z,10.00
2022-12-23T01:53:42.024Z,11.00
2022-12-23T01:56:11.612Z,10.00
2022-12-23T01:58:40.447Z,9.75
2022-12-23T02:01:25.952Z,9.75
2022-12-23T02:03:56.804Z,8.00
2022-12-23T02:06:43.504Z,9.00
2022-12-23T02:09:19.461Z,8.50
2022-12-23T02:12:31.448Z,9.00
2022-12-23T02:15:30.398Z,8.75
2022-12-23T02:18:08.541Z,8.00
2022-12-23T02:20:54.944Z,8.75
2022-12-23T02:24:07.678Z,8.00
2022-12-23T02:27:14.743Z,8.50
2022-12-23T02:30:24.994Z,7.00
2022-12-23T02:33:15.133Z,7.75
2022-12-23T02:35:46.338Z,8.00
2022-12-23T02:38:17.523Z,7.75
2022-12-23T02:40:50.915Z,6.00
2022-12-23T02:43:20.513Z,7.00
2022-12-23T02:45:50.826Z,6.00
2022-12-23T02:48:22.498Z,7.00
2022-12-23T02:50:50.367Z,6.50
2022-12-23T02:53:20.361Z,5.75
2022-12-23T02:55:49.030Z,6.50
2022-12-23T02:58:17.707Z,6.50
2022-12-23T03:00:45.599Z,5.00
2022-12-23T03:03:13.621Z,5.75
2022-12-23T03:05:44.025Z,6.00
2022-12-23T03:08:14.079Z,5.75
2022-12-23T03:10:47.381Z,5.75
2022-12-23T03:13:20.133Z,5.25
2022-12-23T03:15:51.808Z,4.00
2022-12-23T03:18:23.722Z,5.00
2022-12-23T03:20:54.133Z,4.75
2022-12-23T03:23:24.522Z,5.50
2022-12-23T03:25:58.580Z,5.00
2022-12-23T03:28:29.727Z,5.00
2022-12-23T03:30:58.411Z,5.00
2022-12-23T03:33:28.417Z,3.50
2022-12-23T03:35:59.247Z,5.00
2022-12-23T03:38:27.115Z,4.00
2022-12-23T03:40:55.654Z,4.00
2022-12-23T03:43:26.791Z,5.00
2022-12-23T03:45:56.458Z,4.00
2022-12-23T03:48:25.084Z,5.00
2022-12-23T03:50:54.156Z,4.00
2022-12-23T03:53:24.758Z,3.75
2022-12-23T03:55:53.907Z,3.75
2022-12-23T03:58:28.077Z,4.00
2022-12-23T04:00:58.778Z,3.00
2022-12-23T04:03:30.106Z,4.00
2022-12-23T04:05:59.272Z,3.00
2022-12-23T04:08:29.678Z,3.50
2022-12-23T04:10:57.831Z,3.00
2022-12-23T04:13:25.708Z,3.50
2022-12-23T04:15:53.680Z,4.00
2022-12-23T04:18:21.598Z,4.00
2022-12-23T04:20:49.512Z,3.00
2022-12-23T04:23:17.372Z,3.00
2022-12-23T04:25:46.905Z,3.00
2022-12-23T04:28:14.798Z,3.00
2022-12-23T04:30:43.868Z,3.75
2022-12-23T04:33:11.857Z,3.25
2022-12-23T04:35:39.815Z,3.00
2022-12-23T04:38:07.733Z,2.75
2022-12-23T04:40:35.610Z,3.00
2022-12-23T04:43:04.871Z,2.00
2022-12-23T04:45:33.621Z,2.00
2022-12-23T04:48:01.461Z,3.00
2022-12-23T04:50:29.335Z,3.75
2022-12-23T04:52:57.196Z,3.00
2022-12-23T04:55:25.324Z,3.00
2022-12-23T04:57:53.260Z,2.25
2022-12-23T05:00:23.223Z,2.00
2022-12-23T05:02:51.156Z,2.50
2022-12-23T05:05:19.444Z,3.00
2022-12-23T05:07:49.928Z,3.75
2022-12-23T05:10:17.955Z,3.75
2022-12-23T05:12:45.882Z,4.00
2022-12-23T05:15:14.025Z,5.00
2022-12-23T05:17:43.300Z,5.00
2022-12-23T05:20:11.855Z,5.25
2022-12-23T05:22:39.741Z,6.00
2022-12-23T05:25:09.049Z,7.00
2022-12-23T05:27:37.252Z,7.25
2022-12-23T05:30:05.842Z,7.50
2022-12-23T05:32:33.743Z,7.00
2022-12-23T05:35:03.329Z,8.00
2022-12-23T05:37:31.210Z,8.50
2022-12-23T05:39:59.072Z,8.00
2022-12-23T05:42:27.152Z,8.00
2022-12-23T05:44:55.071Z,10.00
2022-12-23T05:47:22.921Z,8.50
2022-12-23T05:49:50.826Z,10.00
2022-12-23T05:52:20.079Z,9.50
2022-12-23T05:54:48.226Z,9.75
2022-12-23T05:57:16.102Z,9.00
2022-12-23T05:59:44.012Z,8.25
2022-12-23T06:02:12.036Z,8.25
2022-12-23T06:04:40.369Z,9.00
2022-12-23T06:07:08.315Z,7.00
2022-12-23T06:09:37.545Z,8.75
2022-12-23T06:12:05.863Z,8.00
2022-12-23T06:14:33.733Z,7.00
2022-12-23T06:17:01.668Z,8.00
2022-12-23T06:19:29.616Z,8.00
2022-12-23T06:21:57.504Z,8.00
2022-12-23T06:24:25.661Z,8.00
2022-12-23T06:26:57.310Z,7.25
2022-12-23T06:29:25.572Z,7.00
2022-12-23T06:31:53.531Z,7.00
2022-12-23T06:34:21.818Z,8.00
2022-12-23T06:36:49.724Z,8.00
2022-12-23T06:39:17.630Z,7.25
2022-12-23T06:41:45.543Z,7.75
2022-12-23T06:44:15.088Z,7.00
2022-12-23T06:46:42.921Z,7.25
2022-12-23T06:49:13.391Z,6.00
2022-12-23T06:51:41.759Z,6.25
2022-12-23T06:54:10.930Z,5.50
2022-12-23T06:56:38.901Z,6.25
2022-12-23T06:59:06.811Z,5.75
2022-12-23T07:01:36.199Z,6.00
2022-12-23T07:04:04.567Z,6.00
2022-12-23T07:06:32.449Z,6.00
2022-12-23T07:09:00.524Z,6.25
2022-12-23T07:11:28.415Z,6.00
2022-12-23T07:13:56.785Z,6.00
2022-12-23T07:16:24.795Z,6.00
2022-12-23T07:18:54.087Z,5.00
2022-12-23T07:21:28.889Z,5.00
2022-12-23T07:23:57.479Z,6.00
2022-12-23T07:26:25.432Z,5.50
2022-12-23T07:28:53.325Z,5.00
2022-12-23T07:31:21.323Z,5.00
2022-12-23T07:33:49.610Z,5.00
2022-12-23T07:36:18.930Z,5.00
2022-12-23T07:38:47.018Z,5.00
2022-12-23T07:41:14.907Z,4.00
2022-12-23T07:43:43.084Z,4.75
2022-12-23T07:46:11.060Z,4.00
2022-12-23T07:48:39.003Z,3.25
2022-12-23T07:51:07.107Z,4.50
2022-12-23T07:53:36.859Z,5.00
2022-12-23T07:56:05.240Z,4.00
2022-12-23T07:58:33.169Z,4.25
2022-12-23T08:01:02.443Z,4.00
2022-12-23T08:03:30.545Z,4.00
2022-12-23T08:06:02.659Z,4.00
2022-12-23T08:08:30.646Z,4.00
2022-12-23T08:11:01.298Z,3.00
2022-12-23T08:13:29.271Z,4.00
2022-12-23T08:15:57.861Z,3.75
2022-12-23T08:18:25.754Z,2.75
2022-12-23T08:20:57.263Z,3.25
2022-12-23T08:23:25.682Z,4.00
2022-12-23T08:26:01.653Z,3.00
2022-12-23T08:28:30.085Z,3.00
2022-12-23T08:31:04.740Z,3.00
2022-12-23T08:33:32.692Z,3.00
2022-12-23T08:36:00.606Z,4.00
2022-12-23T08:38:28.503Z,4.00
2022-12-23T08:40:56.374Z,3.00
2022-12-23T08:43:30.239Z,3.00
2022-12-23T08:46:01.685Z,3.00
2022-12-23T08:48:29.655Z,2.50
2022-12-23T08:50:57.586Z,4.00
2022-12-23T08:53:25.517Z,3.00
2022-12-23T08:55:53.664Z,3.00
2022-12-23T08:58:21.552Z,3.00
2022-12-23T09:00:50.855Z,2.25
2022-12-23T09:03:18.838Z,2.75
2022-12-23T09:05:47.284Z,3.00
2022-12-23T09:08:15.196Z,2.50
2022-12-23T09:10:43.604Z,2.25
2022-12-23T09:13:16.252Z,2.50
2022-12-23T09:15:48.297Z,3.00
2022-12-23T09:18:17.574Z,2.75
2022-12-23T09:20:45.449Z,2.75
2022-12-23T09:23:13.361Z,2.00
2022-12-23T09:25:42.016Z,3.00
2022-12-23T09:28:10.500Z,3.00
2022-12-23T09:30:38.421Z,2.00
2022-12-23T09:33:06.313Z,2.75
2022-12-23T09:35:35.866Z,2.00
2022-12-23T09:38:03.789Z,2.00
2022-12-23T09:40:33.182Z,2.00
2022-12-23T09:43:06.343Z,2.25
2022-12-23T09:45:46.042Z,2.25
2022-12-23T09:48:15.964Z,2.00
2022-12-23T09:50:45.616Z,2.00
2022-12-23T09:53:14.904Z,2.00
2022-12-23T09:55:47.283Z,2.00
2022-12-23T09:58:21.011Z,2.25
2022-12-23T10:00:55.073Z,2.00
2022-12-23T10:03:25.363Z,2.00
2022-12-23T10:06:01.152Z,2.00
2022-12-23T10:08:31.461Z,2.00
2022-12-23T10:11:01.312Z,2.00
2022-12-23T10:13:30.622Z,2.00
2022-12-23T10:15:59.997Z,2.75
2022-12-23T10:18:34.570Z,2.00
2022-12-23T10:21:05.415Z,2.00
2022-12-23T10:23:34.382Z,2.00
2022-12-23T10:26:02.269Z,2.00
2022-12-23T10:28:30.263Z,2.25
2022-12-23T10:33:56.079Z,2.00
2022-12-23T10:36:30.548Z,2.00
2022-12-23T10:39:01.895Z,2.00
2022-12-23T10:41:34.623Z,2.00
2022-12-23T10:44:23.177Z,2.00
2022-12-23T10:46:54.085Z,1.00
2022-12-23T10:49:24.910Z,2.00
2022-12-23T10:51:56.020Z,2.00
2022-12-23T10:54:24.988Z,2.00
2022-12-23T10:56:52.821Z,2.00
2022-12-23T10:59:23.123Z,2.00
2022-12-23T11:01:52.748Z,2.00
2022-12-23T11:04:21.503Z,2.50
2022-12-23T11:07:10.582Z,2.00
2022-12-23T11:09:41.849Z,2.00
2022-12-23T11:12:10.627Z,1.75
2022-12-23T11:14:40.020Z,1.00
2022-12-23T11:17:20.279Z,2.00
2022-12-23T11:19:48.195Z,2.00
2022-12-23T11:22:23.681Z,2.00
2022-12-23T11:24:53.238Z,1.00
2022-12-23T11:27:21.152Z,1.00
2022-12-23T11:29:50.366Z,2.00
2022-12-23T11:32:19.808Z,1.50
2022-12-23T11:34:48.063Z,1.00
2022-12-23T11:37:25.991Z,1.00
2022-12-23T11:39:55.291Z,2.00
2022-12-23T11:42:27.252Z,1.50
2022-12-23T11:44:56.025Z,1.00
2022-12-23T11:47:30.779Z,1.00
2022-12-23T11:49:59.225Z,1.25
2022-12-23T11:52:27.570Z,2.00
2022-12-23T11:54:57.998Z,1.25
2022-12-23T11:57:31.928Z,1.00
2022-12-23T12:00:01.493Z,2.00
2022-12-23T12:02:33.471Z,2.00
2022-12-23T12:05:03.299Z,1.00
2022-12-23T12:07:31.595Z,1.00
2022-12-23T12:10:01.391Z,2.00
2022-12-23T12:12:29.384Z,1.75
2022-12-23T12:14:58.519Z,1.00
2022-12-23T12:17:28.406Z,2.00
2022-12-23T12:20:00.341Z,2.00
2022-12-23T12:22:32.454Z,2.00
2022-12-23T12:25:02.800Z,1.00
2022-12-23T12:27:34.811Z,1.00
2022-12-23T12:30:08.389Z,1.00
2022-12-23T12:32:42.113Z,2.00
2022-12-23T12:35:13.851Z,1.00
2022-12-23T12:37:44.181Z,1.00
2022-12-23T12:40:19.384Z,1.00
2022-12-23T12:42:49.136Z,1.00
2022-12-23T12:45:19.094Z,2.00
2022-12-23T12:47:54.945Z,1.00
2022-12-23T12:50:27.884Z,1.00
2022-12-23T12:52:56.504Z,1.75
2022-12-23T12:55:29.602Z,1.00
2022-12-23T12:57:57.646Z,1.00
2022-12-23T13:00:25.680Z,1.00
2022-12-23T13:03:09.077Z,1.00
2022-12-23T13:05:54.110Z,1.00
2022-12-23T13:08:32.395Z,0.75
2022-12-23T13:11:04.206Z,1.00
2022-12-23T13:13:37.249Z,1.00
2022-12-23T13:16:09.159Z,1.00
2022-12-23T13:18:40.342Z,1.00
2022-12-23T13:21:12.261Z,1.50
2022-12-23T13:23:44.667Z,1.00
2022-12-23T13:26:23.016Z,1.00
2022-12-23T13:28:55.530Z,1.00
2022-12-23T13:31:29.484Z,1.00
2022-12-23T13:33:59.226Z,1.00
2022-12-23T13:36:37.422Z,1.00
2022-12-23T13:39:18.497Z,1.00
2022-12-23T13:41:48.548Z,1.00
2022-12-23T13:44:18.656Z,1.00
2022-12-23T13:46:51.684Z,1.25
2022-12-23T13:49:25.828Z,0.50
2022-12-23T13:51:56.510Z,1.00
2022-12-23T13:54:29.105Z,1.00
2022-12-23T13:57:08.020Z,1.00
2022-12-23T13:59:39.564Z,1.00
2022-12-23T14:02:44.665Z,1.00
2022-12-23T14:05:36.052Z,1.00
2022-12-23T14:08:06.649Z,1.00
2022-12-23T14:10:34.656Z,1.00
2022-12-23T14:13:08.484Z,1.00
2022-12-23T14:15:59.659Z,1.00
2022-12-23T14:19:04.773Z,1.00
2022-12-23T14:21:39.063Z,0.25
2022-12-23T14:24:42.888Z,1.00
2022-12-23T14:27:38.386Z,1.00
2022-12-23T14:30:12.704Z,1.00
2022-12-23T14:32:44.301Z,0.00
2022-12-23T14:35:29.218Z,1.00
2022-12-23T14:38:10.258Z,1.00
2022-12-23T14:41:23.904Z,1.00
2022-12-23T14:44:02.662Z,1.00
2022-12-23T14:46:55.309Z,1.00
2022-12-23T14:49:43.040Z,0.25
2022-12-23T14:52:44.834Z,0.25
2022-12-23T14:55:44.967Z,1.00
2022-12-23T14:58:35.363Z,1.00
2022-12-23T15:01:04.671Z,1.00
2022-12-23T15:03:35.985Z,1.00
2022-12-23T15:06:05.931Z,1.00
2022-12-23T15:08:35.019Z,1.00
2022-12-23T15:11:02.957Z,1.00
2022-12-23T15:13:30.849Z,1.00
2022-12-23T15:16:01.718Z,1.00
2022-12-23T15:18:30.342Z,1.00
2022-12-23T15:21:03.929Z,0.25
2022-12-23T15:23:33.304Z,1.00
2022-12-23T15:26:01.293Z,1.00
2022-12-23T15:28:36.191Z,1.00
2022-12-23T15:31:05.026Z,2.00
2022-12-23T15:36:28.478Z,4.25
2022-12-23T15:38:56.411Z,4.00
2022-12-23T15:41:24.295Z,6.00
2022-12-23T15:43:52.601Z,6.75
2022-12-23T15:46:28.650Z,5.50
2022-12-23T15:48:57.936Z,6.00
2022-12-23T15:52:05.209Z,6.00
2022-12-23T15:54:22.298Z,6.00
2022-12-23T15:56:51.135Z,6.25
2022-12-23T15:59:22.724Z,6.00
2022-12-23T16:01:51.070Z,8.00
2022-12-23T16:04:20.896Z,8.00
2022-12-23T16:06:51.131Z,8.50
2022-12-23T16:09:33.173Z,7.00
2022-12-23T16:12:02.304Z,6.75
2022-12-23T16:14:35.874Z,8.75
2022-12-23T16:17:15.222Z,9.00
2022-12-23T16:19:44.861Z,8.00
2022-12-23T16:22:29.149Z,8.25
2022-12-23T16:25:03.084Z,8.75
2022-12-23T16:27:36.184Z,8.00
2022-12-23T16:30:10.587Z,9.00
2022-12-23T16:32:45.531Z,9.00
2022-12-23T16:35:14.171Z,9.50
2022-12-23T16:37:46.103Z,8.00
2022-12-23T16:40:19.543Z,9.00
2022-12-23T16:42:47.422Z,9.00
2022-12-23T16:45:16.263Z,8.00
2022-12-23T16:47:44.161Z,9.00
2022-12-23T16:50:13.193Z,9.75
2022-12-23T16:52:41.161Z,8.25
2022-12-23T16:55:18.435Z,8.00
2022-12-23T16:57:46.809Z,9.00
2022-12-23T17:00:16.328Z,7.00
2022-12-23T17:02:44.382Z,8.00
2022-12-23T17:05:16.380Z,7.00
2022-12-23T17:07:45.610Z,7.50
2022-12-23T17:10:16.220Z,7.00
2022-12-23T17:12:44.330Z,7.75
2022-12-23T17:15:17.128Z,9.00
2022-12-23T17:17:45.113Z,9.00
2022-12-23T17:20:13.695Z,9.50
2022-12-23T17:22:41.669Z,9.00
2022-12-23T17:25:11.469Z,9.00
2022-12-23T17:27:41.097Z,10.50
2022-12-23T17:30:15.093Z,11.00
2022-12-23T17:32:42.994Z,11.00
2022-12-23T17:35:14.967Z,11.00
2022-12-23T17:37:43.523Z,11.00
2022-12-23T17:40:12.927Z,11.75
2022-12-23T17:42:42.219Z,12.00
2022-12-23T17:45:21.651Z,11.00
2022-12-23T17:47:49.694Z,12.00
2022-12-23T17:50:18.117Z,12.00
2022-12-23T17:52:46.211Z,11.00
2022-12-23T17:55:17.835Z,11.00
2022-12-23T17:57:47.254Z,11.00
2022-12-23T18:00:25.123Z,10.00
2022-12-23T18:02:57.663Z,10.75
2022-12-23T18:05:26.864Z,10.25
2022-12-23T18:07:55.424Z,11.00
2022-12-23T18:10:25.424Z,11.00
2022-12-23T18:12:56.046Z,11.00
2022-12-23T18:15:24.896Z,9.25
2022-12-23T18:17:53.062Z,12.00
2022-12-23T18:20:23.047Z,11.50
2022-12-23T18:22:52.643Z,10.75
2022-12-23T18:25:21.741Z,11.00
2022-12-23T18:27:49.705Z,9.25
2022-12-23T18:30:19.557Z,10.75
2022-12-23T18:32:47.452Z,11.75
2022-12-23T18:35:33.262Z,12.00
2022-12-23T18:38:01.202Z,11.75
2022-12-23T18:40:32.968Z,11.25
2022-12-23T18:43:01.380Z,12.25
2022-12-23T18:45:36.954Z,9.75
2022-12-23T18:48:05.880Z,11.75
2022-12-23T18:50:34.408Z,11.00
2022-12-23T18:53:02.306Z,12.00
2022-12-23T18:55:30.871Z,11.75
2022-12-23T18:57:59.004Z,11.75
2022-12-23T19:00:28.238Z,12.00
2022-12-23T19:02:57.651Z,11.25
2022-12-23T19:05:26.649Z,11.25
2022-12-23T19:07:56.092Z,10.00
2022-12-23T19:10:25.376Z,11.00
2022-12-23T19:12:53.549Z,11.25
2022-12-23T19:15:21.668Z,10.00
2022-12-23T19:17:50.324Z,10.00
2022-12-23T19:20:19.921Z,10.25
2022-12-23T19:22:48.073Z,10.50
2022-12-23T19:25:16.962Z,10.75
2022-12-23T19:27:44.909Z,9.75
2022-12-23T19:30:14.387Z,9.00
2022-12-23T19:32:42.335Z,9.00
2022-12-23T19:35:12.339Z,9.00
2022-12-23T19:37:41.567Z,8.00
2022-12-23T19:40:10.861Z,9.00
2022-12-23T19:42:38.962Z,9.50
2022-12-23T19:45:09.229Z,9.00
2022-12-23T19:47:37.209Z,9.50
2022-12-23T19:50:06.071Z,8.00
2022-12-23T19:52:33.981Z,7.75
2022-12-23T19:55:03.379Z,9.00
2022-12-23T19:57:31.544Z,8.75
2022-12-23T19:59:59.706Z,8.00
2022-12-23T20:02:27.730Z,6.75
2022-12-23T20:04:55.713Z,7.00
2022-12-23T20:07:23.593Z,7.00
2022-12-23T20:09:51.779Z,6.25
2022-12-23T20:12:21.043Z,6.75
2022-12-23T20:14:48.940Z,6.25
2022-12-23T20:17:16.844Z,6.00
2022-12-23T20:19:46.280Z,6.75
2022-12-23T20:22:14.414Z,6.00
2022-12-23T20:24:42.307Z,6.00
2022-12-23T20:27:12.545Z,5.00
2022-12-23T20:29:43.577Z,7.00
2022-12-23T20:32:11.653Z,6.00
2022-12-23T20:34:40.309Z,5.00
2022-12-23T20:37:08.424Z,5.00
2022-12-23T20:39:36.561Z,6.00
2022-12-23T20:42:05.295Z,6.25
2022-12-23T20:44:35.769Z,5.00
2022-12-23T20:47:06.095Z,5.00
2022-12-23T20:49:34.506Z,5.00
2022-12-23T20:52:02.504Z,5.00
2022-12-23T20:54:33.758Z,5.00
2022-12-23T20:57:02.085Z,5.00
2022-12-23T20:59:29.966Z,4.00
2022-12-23T21:01:59.127Z,5.00
2022-12-23T21:04:28.779Z,4.00
2022-12-23T21:06:56.654Z,3.00
2022-12-23T21:09:24.525Z,5.00
2022-12-23T21:11:52.743Z,4.00
2022-12-23T21:14:20.593Z,4.00
2022-12-23T21:16:48.575Z,3.50
2022-12-23T21:19:17.462Z,4.00
2022-12-23T21:21:46.769Z,3.00
2022-12-23T21:24:14.832Z,3.00
2022-12-23T21:26:42.841Z,3.50
2022-12-23T21:29:11.267Z,3.00
2022-12-23T21:31:40.894Z,4.00
2022-12-23T21:34:08.964Z,3.50
2022-12-23T21:36:38.547Z,3.00
2022-12-23T21:39:07.931Z,4.00
2022-12-23T21:41:37.188Z,3.00
2022-12-23T21:44:05.461Z,3.00
2022-12-23T21:46:33.396Z,2.25
2022-12-23T21:49:01.353Z,2.75
2022-12-23T21:51:36.913Z,3.00
2022-12-23T21:54:09.393Z,3.00
2022-12-23T21:56:37.403Z,3.00
2022-12-23T21:59:06.659Z,3.00
2022-12-23T22:01:35.221Z,3.00
2022-12-23T22:04:03.322Z,2.75
2022-12-23T22:06:32.026Z,2.00
2022-12-23T22:08:59.994Z,2.00
2022-12-23T22:11:30.200Z,2.00
2022-12-23T22:13:58.126Z,2.75
2022-12-23T22:16:26.954Z,2.25
2022-12-23T22:18:55.109Z,2.00
2022-12-23T22:21:23.928Z,2.00
2022-12-23T22:23:52.213Z,2.00
2022-12-23T22:26:25.226Z,2.75
2022-12-23T22:28:55.603Z,2.00
2022-12-23T22:31:28.504Z,2.00
2022-12-23T22:33:56.454Z,2.00
2022-12-23T22:36:24.424Z,2.00
2022-12-23T22:38:52.827Z,1.75
2022-12-23T22:41:20.841Z,1.25
2022-12-23T22:43:48.812Z,2.00
2022-12-23T22:46:18.455Z,2.00
2022-12-23T22:48:46.698Z,1.00
2022-12-23T22:51:15.765Z,1.50
2022-12-23T22:53:43.636Z,2.00
2022-12-23T22:56:11.928Z,2.25
2022-12-23T22:58:39.809Z,1.00
2022-12-23T23:01:07.812Z,1.75
2022-12-23T23:03:37.062Z,1.00
2022-12-23T23:06:05.930Z,1.25
2022-12-23T23:08:34.129Z,1.50
2022-12-23T23:11:03.777Z,1.75
2022-12-23T23:13:32.565Z,1.00
2022-12-23T23:16:00.689Z,1.00
2022-12-23T23:18:28.767Z,1.00
2022-12-23T23:20:58.353Z,1.00
2022-12-23T23:23:26.247Z,1.75
2022-12-23T23:25:54.114Z,1.00
2022-12-23T23:28:22.089Z,1.25
2022-12-23T23:30:59.057Z,2.00
2022-12-23T23:33:37.879Z,1.00
2022-12-23T23:36:08.382Z,1.00
2022-12-23T23:38:36.358Z,1.00
2022-12-23T23:41:04.423Z,1.25
2022-12-23T23:43:32.330Z,1.00
2022-12-23T23:46:00.280Z,1.00
2022-12-23T23:48:28.285Z,1.00
2022-12-23T23:51:04.092Z,1.00
2022-12-23T23:53:33.392Z,1.00
2022-12-23T23:56:05.515Z,1.00
2022-12-23T23:58:33.480Z,0.75
